Time;durP1;ratioP1;P1;durP2;ratioP2;P2;SDS_P1;SDS_P2;PMS_P1;PMS_P2;Temp;Humidity;BMP_temperature;BMP_pressure;BME280_temperature;BME280_humidity;BME280_pressure;Samples;Min_cycle;Max_cycle;Signal;HPM_P1;HPM_P2
2021/04/14 00:00:44;;;;;;;1.25;0.63;;;;;;;17.70;50.17;103283.50;6298198;22;20061;-78
2021/04/14 00:03:18;;;;;;;2.53;0.80;;;;;;;17.68;50.15;103291.28;6332114;22;20015;-78
2021/04/14 00:05:44;;;;;;;1.30;0.70;;;;;;;17.67;50.20;103286.03;6340160;22;20113;-78
2021/04/14 00:08:10;;;;;;;0.90;0.63;;;;;;;17.67;50.25;103286.91;6317636;22;20018;-78
2021/04/14 00:10:37;;;;;;;0.95;0.73;;;;;;;17.68;50.09;103288.69;6398378;22;20054;-78
2021/04/14 00:13:03;;;;;;;1.15;0.75;;;;;;;17.67;50.40;103283.44;6370549;22;19994;-78
2021/04/14 00:15:39;;;;;;;1.30;0.80;;;;;;;17.68;50.23;103277.38;6343072;22;20002;-79
2021/04/14 00:18:05;;;;;;;1.02;0.60;;;;;;;17.67;50.42;103280.81;6366269;22;20010;-78
2021/04/14 00:20:32;;;;;;;1.30;0.80;;;;;;;17.64;50.43;103278.13;6365164;22;20009;-78
2021/04/14 00:23:04;;;;;;;1.02;0.68;;;;;;;17.67;50.36;103275.63;6363230;22;20007;-78
2021/04/14 00:25:34;;;;;;;1.50;0.68;;;;;;;17.67;50.09;103275.63;6348950;22;20006;-78
2021/04/14 00:28:09;;;;;;;1.15;0.70;;;;;;;17.68;50.24;103287.78;6354457;22;20014;-78
2021/04/14 00:30:34;;;;;;;0.90;0.65;;;;;;;17.67;50.26;103275.63;6360156;22;20006;-78
2021/04/14 00:33:01;;;;;;;1.30;0.70;;;;;;;17.66;50.46;103273.88;6358811;22;20013;-78
2021/04/14 00:35:34;;;;;;;1.23;0.75;;;;;;;17.65;50.24;103278.16;6361829;22;20002;-78
2021/04/14 00:38:06;;;;;;;0.80;0.68;;;;;;;17.65;50.10;103272.09;6364064;22;20006;-78
2021/04/14 00:40:39;;;;;;;0.80;0.70;;;;;;;17.64;50.15;103272.94;6334985;22;20019;-78
2021/04/14 00:43:34;;;;;;;1.05;0.73;;;;;;;17.62;50.21;103264.19;6335815;22;20028;-78
2021/04/14 00:46:00;;;;;;;0.60;0.52;;;;;;;17.64;50.19;103268.59;6376525;22;20018;-78
2021/04/14 00:48:26;;;;;;;0.98;0.60;;;;;;;17.62;50.40;103265.06;6366764;22;19986;-78
2021/04/14 00:50:52;;;;;;;1.08;0.80;;;;;;;17.61;50.28;103267.63;6342879;22;20026;-78
2021/04/14 00:53:19;;;;;;;1.10;0.70;;;;;;;17.59;50.38;103264.09;6332273;22;20015;-78
2021/04/14 00:56:06;;;;;;;1.00;0.68;;;;;;;17.61;50.19;103265.00;6336369;22;20007;31
2021/04/14 00:58:32;;;;;;;0.80;0.63;;;;;;;17.60;50.06;103258.94;6286819;22;927278;-78
2021/04/14 01:00:58;;;;;;;0.85;0.65;;;;;;;17.61;50.05;103263.28;6321596;22;20019;-78
2021/04/14 01:03:32;;;;;;;1.08;0.70;;;;;;;17.63;50.19;103263.34;6302655;22;20018;-79
2021/04/14 01:06:03;;;;;;;0.93;0.60;;;;;;;17.58;50.07;103254.53;6337012;22;20059;-78
2021/04/14 01:08:28;;;;;;;1.10;0.63;;;;;;;17.57;50.13;103252.75;6358731;22;20030;-78
2021/04/14 01:13:29;;;;;;;1.13;0.77;;;;;;;17.59;50.30;103248.47;6332995;22;20021;-79
2021/04/14 01:15:54;;;;;;;1.48;0.85;;;;;;;17.59;50.15;103253.66;6306170;22;20007;-79
2021/04/14 01:18:26;;;;;;;1.02;0.63;;;;;;;17.57;50.18;103256.25;6280573;22;20003;-77
2021/04/14 01:20:54;;;;;;;0.95;0.70;;;;;;;17.59;50.13;103256.28;6359555;22;19995;-77
2021/04/14 01:23:22;;;;;;;0.93;0.60;;;;;;;17.54;50.01;103256.16;6356688;22;20009;-77
2021/04/14 01:28:29;;;;;;;1.10;0.68;;;;;;;17.54;50.40;103253.53;6360216;22;20022;-77
2021/04/14 01:30:57;;;;;;;1.00;0.77;;;;;;;17.55;50.27;103255.31;6333710;22;19999;-76
2021/04/14 01:33:26;;;;;;;0.88;0.63;;;;;;;17.56;50.03;103258.81;6335382;22;20003;-77
2021/04/14 01:35:51;;;;;;;1.23;0.82;;;;;;;17.54;50.20;103263.09;6337661;22;20025;-77
2021/04/14 01:38:25;;;;;;;1.08;0.70;;;;;;;17.55;50.11;103257.03;6311686;22;20006;-76
2021/04/14 01:40:51;;;;;;;1.50;0.80;;;;;;;17.54;50.29;103257.88;6365075;22;20050;-77
2021/04/14 01:43:17;;;;;;;0.80;0.57;;;;;;;17.51;50.33;103256.06;6333029;22;20002;-78
2021/04/14 01:45:45;;;;;;;0.80;0.68;;;;;;;17.54;50.03;103263.09;6307919;22;20010;-79
2021/04/14 01:48:12;;;;;;;1.33;0.80;;;;;;;17.51;50.22;103263.88;6306885;22;19991;-78
2021/04/14 01:50:38;;;;;;;1.05;0.60;;;;;;;17.51;50.23;103262.97;6321653;22;20020;-78
2021/04/14 01:53:06;;;;;;;1.27;0.90;;;;;;;17.50;50.05;103266.44;6300197;22;20030;-78
2021/04/14 01:55:33;;;;;;;1.13;0.70;;;;;;;17.51;50.10;103265.56;6309220;22;20529;-78
2021/04/14 01:58:00;;;;;;;1.58;0.80;;;;;;;17.52;50.22;103264.75;6334961;22;20023;-78
2021/04/14 02:00:42;;;;;;;1.30;0.60;;;;;;;17.49;50.28;103270.75;6302316;22;20029;-77
2021/04/14 02:03:08;;;;;;;1.05;0.60;;;;;;;17.48;50.12;103267.28;6359493;22;20010;-78
2021/04/14 02:05:38;;;;;;;0.88;0.60;;;;;;;17.51;50.31;103270.78;6335982;22;20748;-78
2021/04/14 02:08:29;;;;;;;0.88;0.70;;;;;;;17.50;50.21;103267.31;6361802;22;20022;-76
2021/04/14 02:10:56;;;;;;;0.70;0.55;;;;;;;17.51;50.17;103269.09;6358951;22;19999;-76
2021/04/14 02:13:25;;;;;;;1.40;0.80;;;;;;;17.50;50.05;103276.84;6313838;22;20098;-78
2021/04/14 02:15:52;;;;;;;1.45;0.80;;;;;;;17.49;50.17;103275.97;6339688;22;19995;-78
2021/04/14 02:18:18;;;;;;;1.23;0.70;;;;;;;17.50;50.13;103266.44;6314829;22;19995;-78
2021/04/14 02:20:46;;;;;;;1.08;0.63;;;;;;;17.46;50.09;103268.03;6340556;22;19998;-77
2021/04/14 02:23:40;;;;;;;1.23;0.82;;;;;;;17.46;50.07;103271.56;6339209;22;20003;-78
2021/04/14 02:26:34;;;;;;;0.70;0.50;;;;;;;17.46;50.33;103268.03;6341051;22;20002;-78
2021/04/14 02:29:01;;;;;;;0.70;0.50;;;;;;;17.46;50.23;103260.25;6365910;22;19995;-78
2021/04/14 02:32:08;;;;;;;0.82;0.63;;;;;;;17.47;50.14;103260.28;6368651;22;20014;-77
2021/04/14 02:34:34;;;;;;;0.57;0.55;;;;;;;17.45;50.16;103259.38;6273427;22;20076;-79
2021/04/14 02:37:05;;;;;;;1.15;0.70;;;;;;;17.46;50.15;103265.44;6272639;22;20008;-78
2021/04/14 02:45:31;;;;;;;1.38;0.85;;;;;;;17.45;50.21;103255.88;6387491;22;20040;-77
2021/04/14 02:47:57;;;;;;;1.45;0.80;;;;;;;17.44;50.04;103255.00;6371631;22;20059;-78
2021/04/14 02:50:23;;;;;;;0.95;0.73;;;;;;;17.43;50.21;103249.75;6345883;22;20006;-78
2021/04/14 02:52:49;;;;;;;1.38;0.80;;;;;;;17.44;50.06;103257.63;6349415;22;20014;-76
2021/04/14 02:55:18;;;;;;;1.27;0.80;;;;;;;17.45;50.21;103259.38;6266686;22;20004;-76
2021/04/14 02:57:43;;;;;;;0.57;0.55;;;;;;;17.44;50.01;103256.69;6273914;22;20008;-78
2021/04/14 03:00:11;;;;;;;1.20;0.90;;;;;;;17.44;50.28;103257.63;6274374;23;20018;-79
2021/04/14 03:02:38;;;;;;;1.63;0.80;;;;;;;17.41;50.02;103256.63;6274457;22;19994;-78
2021/04/14 03:05:07;;;;;;;1.27;0.77;;;;;;;17.42;50.28;103254.06;6299931;22;20029;-77
2021/04/14 03:07:32;;;;;;;0.82;0.57;;;;;;;17.42;50.28;103250.56;6366099;22;20006;-76
2021/04/14 03:10:12;;;;;;;0.93;0.60;;;;;;;17.42;49.95;103253.16;6365878;22;20002;-77
2021/04/14 03:12:50;;;;;;;1.17;0.73;;;;;;;17.43;50.21;103266.25;6361473;22;20080;-76
2021/04/14 03:15:40;;;;;;;1.17;0.63;;;;;;;17.43;49.93;103255.81;6398743;22;20017;-76
2021/04/14 03:24:03;;;;;;;1.13;0.75;;;;;;;17.39;50.24;103259.16;6396029;22;20020;-77
2021/04/14 03:26:29;;;;;;;1.27;0.73;;;;;;;17.42;50.18;103256.69;6365283;22;19998;-77
2021/04/14 03:31:26;;;;;;;1.40;0.93;;;;;;;17.40;50.07;103257.47;6377671;22;20025;-77
2021/04/14 03:33:53;;;;;;;1.20;0.82;;;;;;;17.39;49.98;103255.69;6360734;22;20006;-77
2021/04/14 03:36:19;;;;;;;1.15;0.70;;;;;;;17.38;50.16;103254.81;6361949;22;20006;-77
2021/04/14 03:38:45;;;;;;;0.93;0.80;;;;;;;17.40;50.36;103258.34;6364814;22;19998;-78
2021/04/14 03:41:10;;;;;;;1.88;1.00;;;;;;;17.37;50.14;103255.63;6396081;22;19998;-77
2021/04/14 03:43:36;;;;;;;1.50;0.80;;;;;;;17.38;49.93;103256.56;6317890;22;20020;-79
2021/04/14 03:48:37;;;;;;;1.35;0.95;;;;;;;17.36;50.16;103259.09;6362355;22;20071;-77
2021/04/14 03:51:02;;;;;;;1.35;0.98;;;;;;;17.35;50.19;103259.03;6340598;22;20019;-78
2021/04/14 03:53:31;;;;;;;1.00;0.77;;;;;;;17.37;50.18;103258.25;6356367;22;20029;-78
2021/04/14 03:56:05;;;;;;;1.20;1.00;;;;;;;17.38;50.22;103257.44;6335029;22;20055;-77
2021/04/14 03:58:32;;;;;;;1.55;0.90;;;;;;;17.36;50.05;103253.88;6304342;22;20009;-77
2021/04/14 04:01:00;;;;;;;1.02;0.80;;;;;;;17.38;49.90;103260.03;6357891;22;20083;-78
2021/04/14 04:03:27;;;;;;;1.70;0.80;;;;;;;17.37;50.30;103257.38;6365299;22;20034;-78
2021/04/14 04:08:21;;;;;;;1.15;0.82;;;;;;;17.38;50.20;103259.16;6360133;22;20009;-77
2021/04/14 04:10:47;;;;;;;1.30;0.98;;;;;;;17.34;50.15;103260.78;6327194;22;20019;-77
2021/04/14 04:13:14;;;;;;;1.52;1.00;;;;;;;17.33;50.25;103247.69;6362476;22;20362;-77
2021/04/14 04:15:40;;;;;;;1.08;0.80;;;;;;;17.34;50.25;103257.28;6321147;22;20023;-79
2021/04/14 04:18:06;;;;;;;1.20;0.85;;;;;;;17.33;50.07;103253.78;6304149;22;20377;-77
2021/04/14 04:20:32;;;;;;;1.30;0.90;;;;;;;17.33;50.27;103256.38;6274695;22;20026;-78
2021/04/14 04:23:02;;;;;;;1.00;0.73;;;;;;;17.34;50.09;103250.34;6317268;22;20010;-76
2021/04/14 04:25:30;;;;;;;1.30;0.85;;;;;;;17.31;49.97;103252.88;6325702;22;20018;-77
2021/04/14 04:27:56;;;;;;;1.25;0.90;;;;;;;17.32;50.42;103252.03;6316390;22;20027;-78
2021/04/14 04:30:22;;;;;;;1.40;0.88;;;;;;;17.32;50.24;103251.16;6318383;22;20102;-77
2021/04/14 04:32:48;;;;;;;1.30;1.00;;;;;;;17.32;50.08;103248.56;6351230;22;20045;-77
2021/04/14 04:35:17;;;;;;;1.30;0.90;;;;;;;17.34;49.94;103259.91;6324559;22;20002;-77
2021/04/14 04:40:19;;;;;;;1.25;0.80;;;;;;;17.33;50.24;103258.09;6320738;22;20019;-77
2021/04/14 04:42:46;;;;;;;1.08;0.70;;;;;;;17.36;50.29;103264.31;6265362;22;20044;-76
2021/04/14 04:45:19;;;;;;;1.13;0.73;;;;;;;17.37;50.22;103259.97;6279166;22;20019;-76
2021/04/14 04:47:50;;;;;;;0.98;0.82;;;;;;;17.36;50.22;103266.91;6330335;22;20407;-77
2021/04/14 04:50:27;;;;;;;1.00;0.68;;;;;;;17.34;50.04;103263.38;6305049;22;20036;-78
2021/04/14 04:53:01;;;;;;;1.02;0.70;;;;;;;17.35;50.14;103259.91;6303104;22;20086;-78
2021/04/14 04:55:54;;;;;;;1.20;0.80;;;;;;;17.38;50.36;103266.97;6276454;22;20008;-78
2021/04/14 04:58:25;;;;;;;0.65;0.60;;;;;;;17.39;50.19;103268.72;6275607;22;20004;-78
2021/04/14 05:00:52;;;;;;;0.93;0.60;;;;;;;17.39;50.01;103264.38;6251244;22;20011;-79
2021/04/14 05:03:21;;;;;;;1.50;0.90;;;;;;;17.40;50.08;103263.56;6255865;22;20015;-76
2021/04/14 05:06:07;;;;;;;1.40;0.70;;;;;;;17.45;50.01;103274.09;6346395;22;20109;-78
2021/04/14 05:08:33;;;;;;;1.00;0.70;;;;;;;17.41;50.54;103267.03;6311505;22;20025;-78
2021/04/14 05:11:01;;;;;;;4.18;1.67;;;;;;;17.54;50.42;103265.69;6310180;22;20011;-78
2021/04/14 05:13:29;;;;;;;3.22;1.58;;;;;;;17.54;50.40;103266.56;6354397;22;19990;-78
2021/04/14 05:15:55;;;;;;;8.05;1.92;;;;;;;17.57;50.53;103273.56;6338634;22;19991;-78
2021/04/14 05:18:21;;;;;;;5.35;1.98;;;;;;;17.70;50.77;103280.91;6286900;22;20013;-77
2021/04/14 05:20:49;;;;;;;7.53;2.10;;;;;;;17.83;50.94;103276.97;6361300;22;20003;-77
2021/04/14 05:23:16;;;;;;;8.38;2.28;;;;;;;17.89;50.58;103278.00;6311484;22;20011;-77
2021/04/14 05:25:45;;;;;;;6.15;2.00;;;;;;;17.95;50.79;103281.66;6366128;22;20044;-78
2021/04/14 05:28:15;;;;;;;5.28;2.20;;;;;;;17.99;50.38;103289.59;6360590;22;20008;-79
2021/04/14 05:30:40;;;;;;;3.65;1.85;;;;;;;18.04;50.53;103282.78;6331463;22;20018;-77
2021/04/14 05:33:08;;;;;;;4.38;1.73;;;;;;;18.08;50.17;103276.81;6355937;22;20403;-78
2021/04/14 05:35:35;;;;;;;3.72;1.73;;;;;;;18.12;50.32;103280.38;6359332;22;20002;-78
2021/04/14 05:38:00;;;;;;;5.30;1.80;;;;;;;18.15;50.30;103279.59;6361044;22;20034;-77
2021/04/14 05:40:25;;;;;;;9.48;2.10;;;;;;;18.18;50.14;103280.56;6365024;22;20005;-77
2021/04/14 05:42:51;;;;;;;4.55;2.05;;;;;;;18.26;50.07;103283.34;6339051;22;20022;-77
2021/04/14 05:45:24;;;;;;;2.70;1.55;;;;;;;18.41;49.66;103291.56;6351249;22;20037;-78
2021/04/14 05:47:50;;;;;;;6.07;2.10;;;;;;;18.65;49.23;103287.81;6362405;22;19990;-77
2021/04/14 05:50:19;;;;;;;4.50;1.80;;;;;;;19.09;48.23;103285.44;6325364;22;20025;-91
2021/04/14 05:52:44;;;;;;;4.07;1.80;;;;;;;19.51;47.47;103292.44;6338046;22;20050;-87
2021/04/14 05:55:11;;;;;;;6.93;1.50;;;;;;;19.73;46.58;103289.47;6369541;22;19998;-89
2021/04/14 05:57:37;;;;;;;5.15;1.88;;;;;;;19.90;46.17;103295.06;6368408;22;20306;-87
2021/04/14 06:00:05;;;;;;;3.38;1.67;;;;;;;20.03;45.86;103295.25;6373616;22;20014;-87
2021/04/14 06:02:31;;;;;;;3.95;1.75;;;;;;;20.15;45.57;103292.91;6375570;22;20329;-90
2021/04/14 06:04:56;;;;;;;2.85;1.70;;;;;;;20.44;44.99;103298.63;6372339;22;19998;-91
2021/04/14 06:07:24;;;;;;;3.72;1.58;;;;;;;20.69;44.30;103304.34;6377535;22;20002;-90
2021/04/14 06:09:52;;;;;;;10.50;1.60;;;;;;;20.90;43.68;103306.41;6372018;22;20448;-81
2021/04/14 06:12:18;;;;;;;3.80;1.85;;;;;;;20.94;43.49;103305.59;6371444;22;20006;-81
2021/04/14 06:14:43;;;;;;;3.20;1.73;;;;;;;21.15;42.96;103308.53;6373212;22;20003;-86
2021/04/14 06:17:11;;;;;;;2.22;1.33;;;;;;;21.45;42.46;103314.22;6380928;22;20049;-82
2021/04/14 06:19:37;;;;;;;2.28;1.30;;;;;;;20.35;44.84;103312.44;6394161;22;20009;-88
2021/04/14 06:22:05;;;;;;;3.30;1.52;;;;;;;19.78;46.11;103314.81;6381732;22;20426;-89
2021/04/14 06:24:32;;;;;;;2.90;1.30;;;;;;;21.28;42.50;103312.22;6371662;22;20087;-88
2021/04/14 06:27:01;;;;;;;2.40;1.50;;;;;;;21.63;41.45;103322.34;6371597;22;20026;-88
2021/04/14 06:29:27;;;;;;;3.33;1.63;;;;;;;21.80;41.26;103314.69;6369759;22;20139;-91
2021/04/14 06:31:53;;;;;;;2.95;1.50;;;;;;;21.74;41.28;103315.47;6371456;22;20030;-89
2021/04/14 06:34:21;;;;;;;2.70;1.38;;;;;;;21.57;42.06;103317.88;6348564;22;20009;-89
2021/04/14 06:36:50;;;;;;;2.38;1.20;;;;;;;21.67;41.55;103315.41;6377206;22;20002;-88
2021/04/14 06:39:18;;;;;;;3.45;1.38;;;;;;;21.00;43.03;103315.31;6375094;22;20005;-88
2021/04/14 06:42:19;;;;;;;2.30;1.20;;;;;;;20.38;44.54;103314.22;6374572;22;20013;-93
2021/04/14 06:45:23;;;;;;;3.20;1.10;;;;;;;19.67;46.09;103325.00;6375391;22;20471;-86
2021/04/14 06:48:17;;;;;;;1.92;1.05;;;;;;;19.48;46.74;103319.38;6326101;22;20089;-86
2021/04/14 06:50:48;;;;;;;1.98;1.10;;;;;;;19.42;46.95;103318.38;6321701;22;20294;-83
2021/04/14 06:53:34;;;;;;;3.00;1.30;;;;;;;19.48;46.58;103318.50;6372343;22;20006;-91
2021/04/14 06:56:14;;;;;;;2.30;1.00;;;;;;;21.93;40.63;103305.22;6372940;22;20061;-86
2021/04/14 06:58:44;;;;;;;3.63;0.95;;;;;;;21.78;40.81;103312.03;6373961;22;20444;-87
2021/04/14 07:01:32;;;;;;;1.85;1.00;;;;;;;20.56;43.80;103308.44;6375719;22;20418;-82
2021/04/14 07:04:11;;;;;;;1.70;1.05;;;;;;;20.44;44.13;103318.69;6377549;22;20058;-83
2021/04/14 07:06:40;;;;;;;4.28;1.00;;;;;;;20.80;43.73;103315.88;6378320;22;20497;-82
2021/04/14 07:09:28;;;;;;;1.50;0.90;;;;;;;22.28;39.69;103308.25;6372491;22;19999;-84
2021/04/14 07:11:55;;;;;;;1.38;0.80;;;;;;;22.55;39.22;103310.22;6377244;22;20006;-86
2021/04/14 07:14:21;;;;;;;3.10;1.20;;;;;;;22.76;38.77;103317.41;6374770;22;20002;-86
2021/04/14 07:17:00;;;;;;;3.35;1.08;;;;;;;22.71;39.04;103319.13;6373156;22;20359;-90
2021/04/14 07:19:45;;;;;;;2.47;0.90;;;;;;;22.73;39.27;103317.41;6371068;22;20006;-84
2021/04/14 07:22:42;;;;;;;1.58;0.88;;;;;;;22.70;39.05;103313.88;6370581;22;20007;-90
2021/04/14 07:25:27;;;;;;;1.55;0.90;;;;;;;22.65;39.35;103311.19;6352626;22;20002;-79
2021/04/14 07:28:20;;;;;;;1.52;1.10;;;;;;;22.74;39.15;103316.53;6371401;22;20010;-87
2021/04/14 07:31:38;;;;;;;2.10;0.85;;;;;;;22.92;38.53;103305.28;6371547;22;20006;-81
2021/04/14 07:34:12;;;;;;;1.83;1.00;;;;;;;23.11;38.24;103311.56;6318436;22;20334;-81
2021/04/14 07:36:59;;;;;;;2.38;1.17;;;;;;;23.41;37.60;103310.88;6371207;22;20003;-78
2021/04/14 07:39:50;;;;;;;2.38;1.02;;;;;;;23.44;36.86;103307.38;6368889;22;20026;-84
2021/04/14 07:42:31;;;;;;;2.42;0.90;;;;;;;20.84;42.98;103317.69;6369044;22;20021;-86
2021/04/14 07:45:18;;;;;;;1.55;0.90;;;;;;;20.96;42.66;103311.75;6370487;22;20003;-88
2021/04/14 07:47:49;;;;;;;1.98;0.90;;;;;;;20.18;44.83;103310.38;6370361;22;20360;-88
2021/04/14 07:50:17;;;;;;;1.67;0.88;;;;;;;19.71;45.86;103322.53;6374228;22;20079;-88
2021/04/14 07:52:42;;;;;;;1.75;0.90;;;;;;;22.45;39.14;103302.25;6372571;22;20033;-82
2021/04/14 07:55:47;;;;;;;2.03;1.00;;;;;;;23.78;36.54;103304.94;6344604;22;20385;-84
2021/04/14 07:58:24;;;;;;;2.75;1.08;;;;;;;23.99;35.76;103306.72;6249161;22;20099;-88
2021/04/14 08:00:49;;;;;;;1.40;1.02;;;;;;;24.08;35.83;103297.97;6254023;22;20016;-80
2021/04/14 08:03:26;;;;;;;3.35;0.93;;;;;;;24.02;35.89;103297.09;6268958;22;20018;-80
2021/04/14 08:05:52;;;;;;;1.80;0.90;;;;;;;22.90;37.81;103300.88;6375391;22;20010;-79
2021/04/14 08:08:26;;;;;;;1.70;0.85;;;;;;;20.59;43.66;103313.75;6348188;22;20036;-81
2021/04/14 08:11:32;;;;;;;1.52;0.93;;;;;;;19.82;45.73;103311.44;6376446;22;19998;-83
2021/04/14 08:14:15;;;;;;;2.25;0.80;;;;;;;19.92;45.33;103313.34;6375889;22;20006;-92
2021/04/14 08:16:45;;;;;;;1.57;0.90;;;;;;;19.80;45.60;103318.34;6376945;22;20093;-84
2021/04/14 08:19:33;;;;;;;1.83;0.82;;;;;;;19.68;45.96;103321.53;6372941;22;20058;-81
2021/04/14 08:22:03;;;;;;;1.70;0.85;;;;;;;19.67;45.83;103319.78;6372613;22;20375;-81
2021/04/14 08:24:40;;;;;;;1.35;0.80;;;;;;;20.69;43.11;103320.03;6374248;22;20320;-89
2021/04/14 08:27:16;;;;;;;1.42;0.60;;;;;;;19.91;44.84;103312.47;6376899;22;20005;-86
2021/04/14 08:29:42;;;;;;;3.97;0.90;;;;;;;19.63;45.81;103321.44;6382339;22;19998;-78
2021/04/14 08:32:09;;;;;;;1.08;0.70;;;;;;;19.49;45.91;103315.94;6386226;22;20048;-87
2021/04/14 08:34:37;;;;;;;1.45;0.80;;;;;;;19.40;46.22;103322.66;6360161;22;20124;-85
2021/04/14 08:37:10;;;;;;;2.78;0.80;;;;;;;19.31;46.47;103328.56;6390752;22;19995;-78
2021/04/14 08:39:35;;;;;;;1.67;0.87;;;;;;;19.29;46.61;103330.25;6393918;22;20005;-79
2021/04/14 08:42:19;;;;;;;1.13;0.80;;;;;;;19.25;46.49;103329.31;6397866;22;20236;-82
2021/04/14 08:44:47;;;;;;;;;;;;;;;19.23;46.48;103332.75;6387308;22;19999;-90
2021/04/14 08:47:13;;;;;;;0.90;0.65;;;;;;;19.17;46.67;103330.88;6383322;22;19910;-80
2021/04/14 08:49:40;;;;;;;3.38;0.90;;;;;;;19.10;46.85;103321.13;6385391;22;20037;-78
2021/04/14 08:52:11;;;;;;;2.47;0.70;;;;;;;19.08;46.81;103330.66;6359472;22;20018;-78
2021/04/14 08:54:40;;;;;;;1.88;0.70;;;;;;;19.07;46.73;103324.53;6386951;22;20010;-78
2021/04/14 08:57:07;;;;;;;1.33;0.80;;;;;;;19.07;46.73;103329.75;6392708;22;20005;-78
2021/04/14 08:59:34;;;;;;;1.27;0.70;;;;;;;19.02;46.92;103333.13;6364235;22;20025;-77
2021/04/14 09:02:03;;;;;;;1.10;0.80;;;;;;;18.96;47.14;103330.34;6388858;22;20510;-77
2021/04/14 09:04:28;;;;;;;1.25;0.70;;;;;;;18.91;47.05;103332.84;6389331;22;20006;-77
2021/04/14 09:06:54;;;;;;;2.90;0.80;;;;;;;18.85;47.19;103330.09;6389046;22;19998;-77
2021/04/14 09:09:23;;;;;;;1.15;0.52;;;;;;;18.81;47.32;103336.06;6385364;22;20028;-77
2021/04/14 09:12:09;;;;;;;1.15;0.77;;;;;;;18.77;47.51;103335.09;6387303;22;20006;-78
2021/04/14 09:14:36;;;;;;;2.03;0.75;;;;;;;18.76;47.47;103335.06;6383779;22;20006;-77
2021/04/14 09:17:13;;;;;;;0.88;0.60;;;;;;;18.78;47.33;103343.84;6384096;22;19999;-77
2021/04/14 09:19:42;;;;;;;3.58;0.73;;;;;;;18.74;47.42;103339.34;6385434;22;20003;-77
2021/04/14 09:22:26;;;;;;;1.55;0.68;;;;;;;18.70;47.66;103339.28;6383329;22;20002;-77
2021/04/14 09:25:04;;;;;;;2.50;0.70;;;;;;;18.71;47.62;103342.75;6353268;22;20006;-77
2021/04/14 09:27:35;;;;;;;1.27;0.85;;;;;;;18.70;47.69;103339.28;6379230;22;20007;-78
2021/04/14 09:30:37;;;;;;;1.48;0.70;;;;;;;18.71;47.74;103345.38;6380726;22;19999;-78
2021/04/14 09:33:05;;;;;;;3.25;0.73;;;;;;;18.70;47.84;103341.88;6383021;22;20025;-77
2021/04/14 09:35:31;;;;;;;1.88;0.75;;;;;;;18.74;47.82;103344.56;6384956;22;20002;-78
2021/04/14 09:38:27;;;;;;;1.30;0.70;;;;;;;18.75;48.00;103349.81;6391904;22;20009;-78
2021/04/14 09:41:06;;;;;;;1.27;0.52;;;;;;;18.79;47.79;103349.09;6390082;22;20002;-77
2021/04/14 09:43:34;;;;;;;1.50;0.70;;;;;;;18.79;48.01;103351.72;6389795;22;20006;-78
2021/04/14 09:46:14;;;;;;;1.13;0.63;;;;;;;18.78;47.94;103346.44;6349274;22;20026;-78
2021/04/14 09:48:45;;;;;;;1.02;0.50;;;;;;;18.84;47.90;103351.81;6327717;22;20019;-77
2021/04/14 09:51:34;;;;;;;1.15;0.63;;;;;;;18.86;47.70;103347.53;6328984;22;20086;-77
2021/04/14 09:54:17;;;;;;;1.80;0.75;;;;;;;18.88;47.89;103344.09;6356139;22;19999;-77
2021/04/14 09:56:49;;;;;;;0.93;0.60;;;;;;;18.97;47.62;103337.34;6361066;22;20009;-78
2021/04/14 09:59:36;;;;;;;1.77;0.77;;;;;;;19.01;47.41;103344.38;6362473;22;20062;-78
2021/04/14 10:02:09;;;;;;;1.30;0.50;;;;;;;19.05;47.27;103334.09;6364462;22;20025;-77
2021/04/14 10:04:37;;;;;;;1.98;0.60;;;;;;;19.10;47.17;103340.28;6389716;22;20066;-78
2021/04/14 10:07:15;;;;;;;1.10;0.63;;;;;;;19.13;47.25;103341.19;6361501;22;20003;-77
2021/04/14 10:09:41;;;;;;;1.95;0.70;;;;;;;19.11;47.30;103339.41;6360380;22;20010;-78
2021/04/14 10:12:21;;;;;;;0.73;0.50;;;;;;;19.12;47.17;103335.09;6335405;22;20011;-78
2021/04/14 10:14:50;;;;;;;1.23;0.60;;;;;;;19.13;47.29;103335.97;6360144;22;20085;-80
2021/04/14 10:17:18;;;;;;;1.35;0.50;;;;;;;19.18;47.24;103337.84;6358674;22;20024;-77
2021/04/14 10:19:45;;;;;;;0.95;0.57;;;;;;;19.22;47.01;103333.59;6358060;22;20015;-81
2021/04/14 10:22:18;;;;;;;0.88;0.40;;;;;;;19.24;46.83;103331.88;6362600;22;19994;-78
2021/04/14 10:24:45;;;;;;;1.37;0.73;;;;;;;19.26;47.06;103328.47;6359507;22;20106;-84
2021/04/14 10:27:19;;;;;;;1.10;0.60;;;;;;;19.33;46.87;103324.25;6355535;22;20014;-81
2021/04/14 10:29:44;;;;;;;1.42;0.70;;;;;;;19.37;46.48;103320.88;6357127;22;20005;-80
2021/04/14 10:32:23;;;;;;;1.42;0.50;;;;;;;19.35;46.69;103322.56;6352806;22;20002;-80
2021/04/14 10:34:49;;;;;;;0.93;0.57;;;;;;;19.27;46.87;103324.13;6351260;22;20002;-78
2021/04/14 10:37:16;;;;;;;0.80;0.50;;;;;;;19.16;47.00;103320.38;6353209;22;20045;-78
2021/04/14 10:39:42;;;;;;;0.63;0.50;;;;;;;19.09;47.07;103317.63;6331082;22;20511;-80
2021/04/14 10:42:21;;;;;;;0.45;0.38;;;;;;;19.07;47.14;103316.69;6359471;22;20062;-78
2021/04/14 10:44:47;;;;;;;0.75;0.50;;;;;;;18.99;47.18;103312.16;6359668;22;19999;-78
2021/04/14 10:47:18;;;;;;;0.55;0.50;;;;;;;18.94;47.47;103319.00;6360658;22;20426;-77
2021/04/14 10:49:44;;;;;;;0.57;0.45;;;;;;;18.90;47.44;103315.41;6361709;22;20006;-78
2021/04/14 10:52:19;;;;;;;1.38;0.47;;;;;;;18.89;47.24;103317.16;6334970;22;20015;-77
2021/04/14 10:54:48;;;;;;;0.63;0.40;;;;;;;18.90;47.34;103315.41;6360343;22;20017;-77
2021/04/14 10:57:35;;;;;;;0.60;0.35;;;;;;;18.93;46.99;103314.63;6387507;22;20029;-78
2021/04/14 11:00:10;;;;;;;1.55;0.60;;;;;;;18.98;47.18;103319.09;6365381;22;20003;-78
2021/04/14 11:02:41;;;;;;;0.70;0.50;;;;;;;19.01;46.87;103313.06;6393824;22;20002;-78
2021/04/14 11:05:10;;;;;;;0.93;0.50;;;;;;;19.05;46.83;103313.19;6365325;22;20022;-78
2021/04/14 11:07:36;;;;;;;1.20;0.60;;;;;;;19.06;46.81;103308.84;6361582;22;20010;-79
2021/04/14 11:10:06;;;;;;;1.02;0.40;;;;;;;19.11;46.60;103315.94;6358570;22;19999;-77
2021/04/14 11:12:33;;;;;;;0.70;0.50;;;;;;;19.13;46.43;103307.28;6357343;22;20063;-78
2021/04/14 11:15:13;;;;;;;1.33;0.50;;;;;;;19.08;46.53;103297.59;6359972;22;20405;-79
2021/04/14 11:17:39;;;;;;;0.68;0.40;;;;;;;19.07;46.79;103311.47;6360969;22;20006;-83
2021/04/14 11:20:09;;;;;;;1.08;0.40;;;;;;;19.08;46.80;103309.78;6335071;22;20006;-77
2021/04/14 11:22:50;;;;;;;0.70;0.50;;;;;;;19.06;46.72;103308.84;6360410;22;20030;-81
2021/04/14 11:25:42;;;;;;;1.00;0.50;;;;;;;19.00;46.78;103309.59;6361130;22;20003;-79
2021/04/14 11:28:11;;;;;;;0.85;0.55;;;;;;;19.02;46.64;103310.50;6382505;22;20059;-78
2021/04/14 11:30:52;;;;;;;0.77;0.63;;;;;;;19.01;46.71;103319.19;6357274;22;20035;-77
2021/04/14 11:33:31;;;;;;;1.08;0.30;;;;;;;18.97;46.83;103311.25;6345028;22;20032;-77
2021/04/14 11:35:57;;;;;;;0.70;0.50;;;;;;;18.92;47.00;103313.72;6346869;22;20025;-77
2021/04/14 11:38:28;;;;;;;1.17;0.50;;;;;;;18.88;46.82;103319.75;6345622;22;20010;-77
2021/04/14 11:40:54;;;;;;;0.52;0.47;;;;;;;18.86;47.06;103316.22;6347678;22;20003;-77
2021/04/14 11:43:26;;;;;;;0.75;0.40;;;;;;;18.81;46.87;103317.81;6348621;22;20034;-78
2021/04/14 11:46:19;;;;;;;0.52;0.47;;;;;;;18.79;47.00;103317.78;6346344;22;20396;-80
2021/04/14 11:49:04;;;;;;;1.73;0.50;;;;;;;18.77;47.01;103315.94;6322821;22;20148;-77
2021/04/14 11:51:37;;;;;;;0.40;0.40;;;;;;;18.75;47.05;103323.75;6347102;22;20303;-77
2021/04/14 11:54:10;;;;;;;0.68;0.40;;;;;;;18.71;47.22;103320.16;6344473;22;19998;-77
2021/04/14 11:56:41;;;;;;;0.73;0.40;;;;;;;18.72;47.07;103318.44;6344605;22;20002;-77
2021/04/14 11:59:24;;;;;;;0.77;0.60;;;;;;;18.73;47.22;103327.13;6349120;22;19999;-77
2021/04/14 12:01:58;;;;;;;1.88;0.32;;;;;;;18.69;47.09;103331.41;6351833;22;20014;-78
2021/04/14 12:04:23;;;;;;;0.50;0.40;;;;;;;18.68;47.38;103335.75;6352280;22;20058;-77
2021/04/14 12:06:49;;;;;;;0.47;0.40;;;;;;;18.68;47.26;103329.63;6355275;22;20315;-77
2021/04/14 12:09:14;;;;;;;0.60;0.40;;;;;;;18.65;47.72;103326.94;6356009;22;20010;-76
2021/04/14 12:11:40;;;;;;;1.23;0.60;;;;;;;18.63;47.49;103337.34;6312860;22;20019;-78
2021/04/14 12:14:05;;;;;;;0.47;0.40;;;;;;;18.62;47.39;103342.53;6357920;22;20430;-78